Latest Weather Observations for St Helens

IDT60801

Issued at 12:31 pm EDT Tuesday 23 December 2014 (issued every 30 minutes, with the page automatically refreshed every 10 minutes)

About weather observations | Map of weather stations | Latest weather observations for TAS | Other Formats
Station Details ID: 092120 Name: ST HELENS AERODROME Lat: -41.34 Lon: 148.28 Height: 48.0 m
Data from the previous 72 hours. | See also: Recent months at St Helens
Date/Time
EDT
Temp
°C
App
Temp
°C
Dew
Point
Rel
Hum
%
Delta-T
°C
Wind Press
QNH
hPa
Press
MSL
hPa
Rain
since 9 am
mm
Dir
 
Spd
km/h
Gust
km/h
Spd
kts
Gust
kts
23/12:30pm 19.8 18.5 17.2 85 1.6 N 20 28 11 15 1006.0 - 2.0
23/12:00pm 19.1 19.7 17.6 91 0.9 NNW 11 17 6 9 1006.4 1006.4 2.0
23/11:30am 18.9 18.4 17.0 89 1.2 NNW 15 24 8 13 1006.6 - 0.8
23/11:00am 19.3 18.8 17.8 91 0.9 N 17 26 9 14 1006.6 - 0.0
23/10:30am 19.4 19.3 17.9 91 0.9 N 15 20 8 11 1006.8 - 0.0
23/10:00am 19.2 18.7 17.9 92 0.8 NNE 17 24 9 13 1007.0 - 0.0
23/09:30am 19.2 19.5 18.0 93 0.7 N 13 19 7 10 1007.0 - 0.0
23/09:00am 18.7 18.9 17.7 94 0.6 N 13 20 7 11 1007.2 1007.2 0.6
23/08:30am 18.5 19.1 17.7 95 0.5 NNE 11 15 6 8 1007.2 - 0.6
23/08:00am 18.3 20.1 17.5 95 0.5 W 4 9 2 5 1006.7 - 0.6
23/07:30am 17.8 18.9 17.2 96 0.4 NW 7 9 4 5 1006.9 - 0.6
23/07:00am 17.3 18.4 16.7 96 0.4 WNW 6 9 3 5 1007.1 - 0.6
23/06:30am 17.1 18.5 16.5 96 0.4 NW 4 9 2 5 1007.1 - 0.6
23/06:00am 16.9 18.6 16.3 96 0.4 NE 2 6 1 3 1007.0 1007.0 0.6
23/05:30am 16.7 18.4 16.1 96 0.4 NNE 2 6 1 3 1006.8 - 0.6
23/05:00am 16.8 18.9 16.2 96 0.4 CALM 0 6 0 3 1007.0 - 0.6
23/04:30am 16.7 17.5 15.9 95 0.5 SSE 6 9 3 5 1007.1 - 0.4
23/04:00am 16.6 16.8 15.8 95 0.5 SE 9 13 5 7 1007.3 - 0.4
23/03:30am 16.7 17.5 15.9 95 0.5 ESE 6 15 3 8 1007.3 - 0.4
23/03:00am 16.6 18.5 15.8 95 0.5 CALM 0 7 0 4 1008.3 1008.3 0.4
23/02:30am 16.6 17.7 15.6 94 0.6 W 4 7 2 4 1008.9 - 0.2
23/02:00am 16.5 17.1 15.4 93 0.6 NW 6 9 3 5 1009.5 - 0.0
23/01:30am 17.0 18.8 15.5 91 0.9 CALM 0 0 0 0 1009.8 - 0.0
23/01:00am 17.3 19.1 15.5 89 1.1 CALM 0 6 0 3 1010.2 - 0.0
23/12:30am 17.3 18.1 14.8 85 1.4 S 4 9 2 5 1010.6 - 0.0
23/12:00am 17.1 18.6 14.6 85 1.4 CALM 0 2 0 1 1011.1 1011.0 0.0
 
Date/Time
EDT
Temp
°C
App
Temp
°C
Dew
Point
Rel
Hum
%
Delta-T
°C
Wind Press
QNH
hPa
Press
MSL
hPa
Rain
since 9 am
mm
Dir
 
Spd
km/h
Gust
km/h
Spd
kts
Gust
kts
22/11:30pm 17.2 18.7 14.7 85 1.4 CALM 0 6 0 3 1011.6 - 0.0
22/11:00pm 17.2 18.0 14.7 85 1.4 E 4 13 2 7 1012.0 - 0.0
22/10:30pm 17.0 18.4 14.5 85 1.4 CALM 0 6 0 3 1012.2 - 0.0
22/10:00pm 16.8 17.8 14.4 86 1.4 E 2 7 1 4 1012.8 - 0.0
22/09:30pm 16.7 18.0 14.2 85 1.4 CALM 0 6 0 3 1012.9 - 0.0
22/09:00pm 16.5 17.8 14.2 86 1.3 CALM 0 0 0 0 1013.4 1013.3 0.0
22/08:30pm 16.4 16.4 13.7 84 1.5 E 6 7 3 4 1013.4 - 0.0
22/08:00pm 17.0 18.1 13.5 80 2.0 CALM 0 6 0 3 1013.7 - 0.0
22/07:30pm 17.3 17.6 13.4 78 2.2 E 4 7 2 4 1013.8 - 0.0
22/07:00pm 17.0 16.9 13.3 79 2.1 E 6 11 3 6 1013.8 - 0.0
22/06:30pm 17.2 16.5 13.3 78 2.2 E 9 13 5 7 1013.8 - 0.0
22/06:00pm 17.5 17.3 13.6 78 2.2 ESE 7 13 4 7 1013.8 1013.7 0.0
22/05:30pm 17.3 17.2 13.4 78 2.2 ESE 6 13 3 7 1014.3 - 0.0
22/05:00pm 17.5 17.3 13.6 78 2.2 E 7 13 4 7 1014.5 - 0.0
22/04:30pm 17.5 16.1 13.4 77 2.3 ENE 13 17 7 9 1014.6 - 0.0
22/04:00pm 18.1 16.3 13.4 74 2.7 ENE 15 20 8 11 1014.9 - 0.0
22/03:30pm 18.1 16.3 13.2 73 2.8 ENE 15 20 8 11 1015.2 - 0.0
22/03:00pm 18.1 15.8 13.0 72 2.9 NE 17 20 9 11 1015.3 1015.3 0.0
22/02:30pm 19.1 17.0 13.5 70 3.2 ENE 17 22 9 12 1015.7 - 0.0
22/02:00pm 19.6 16.4 13.1 66 3.7 ENE 22 30 12 16 1015.9 - 0.0
22/01:30pm 19.9 16.8 13.4 66 3.7 NE 22 33 12 18 1016.1 - 0.0
22/01:00pm 20.2 16.6 12.9 63 4.1 ENE 24 32 13 17 1016.1 - 0.0
22/12:30pm 19.7 16.6 12.2 62 4.2 ENE 20 32 11 17 1016.2 - 0.0
22/12:00pm 19.9 17.0 12.9 64 4.0 E 20 32 11 17 1016.3 1016.3 0.0
22/11:30am 20.0 17.1 13.0 64 4.0 E 20 28 11 15 1016.2 - 0.0
22/11:00am 19.5 16.7 12.5 64 3.9 ENE 19 28 10 15 1016.4 - 0.0
22/10:30am 20.3 17.7 13.3 64 4.0 ENE 19 26 10 14 1016.3 - 0.0
22/10:00am 19.4 16.4 12.7 65 3.8 ENE 20 28 11 15 1016.3 - 0.0
22/09:30am 19.2 15.9 12.7 66 3.7 ENE 22 30 12 16 1016.3 - 0.0
22/09:00am 19.3 17.0 13.0 67 3.6 ENE 17 26 9 14 1016.6 1016.6 0.0
22/08:30am 17.4 15.4 12.7 74 2.6 E 15 20 8 11 1016.3 - 0.0
22/08:00am 16.6 15.1 11.9 74 2.6 ESE 11 13 6 7 1016.2 - 0.0
22/07:30am 16.4 15.4 12.4 77 2.2 E 9 15 5 8 1015.8 - 0.0
22/07:00am 16.2 15.8 12.9 81 1.8 S 7 15 4 8 1015.7 - 0.0
22/06:30am 15.7 15.2 12.8 83 1.6 S 7 13 4 7 1015.5 - 0.0
22/06:00am 15.3 14.8 12.8 85 1.4 S 7 11 4 6 1015.3 1015.3 0.0
22/05:30am 15.4 14.5 12.7 84 1.5 S 9 15 5 8 1014.9 - 0.0
22/05:00am 15.5 14.3 12.8 84 1.5 S 11 17 6 9 1014.9 - 0.0
22/04:30am 15.4 14.7 13.2 87 1.2 S 9 13 5 7 1014.8 - 0.0
22/04:00am 15.4 14.8 13.4 88 1.1 S 9 17 5 9 1014.8 - 0.0
22/03:30am 15.7 15.1 13.5 87 1.2 S 9 17 5 9 1014.8 - 0.0
22/03:00am 15.7 15.2 13.9 89 1.0 S 9 17 5 9 1014.9 1014.9 0.0
22/02:30am 15.7 14.9 14.1 90 0.9 S 11 17 6 9 1014.7 - 0.0
22/02:00am 15.7 15.3 14.1 90 0.9 S 9 17 5 9 1014.4 - 0.0
22/01:30am 15.5 15.0 13.7 89 1.0 SSE 9 17 5 9 1014.4 - 0.0
22/01:00am 14.8 14.5 12.7 87 1.2 E 6 13 3 7 1014.3 - 0.0
22/12:30am 15.4 15.0 12.5 83 1.6 ESE 6 7 3 4 1013.7 - 0.0
22/12:00am 15.3 15.9 11.9 80 1.8 CALM 0 0 0 0 1013.6 1013.5 0.0
 
Date/Time
EDT
Temp
°C
App
Temp
°C
Dew
Point
Rel
Hum
%
Delta-T
°C
Wind Press
QNH
hPa
Press
MSL
hPa
Rain
since 9 am
mm
Dir
 
Spd
km/h
Gust
km/h
Spd
kts
Gust
kts
21/11:30pm 15.7 14.8 11.5 76 2.3 NNW 7 11 4 6 1013.5 - 0.0
21/11:00pm 16.5 15.7 11.6 73 2.7 NW 7 13 4 7 1013.1 - 0.0
21/10:30pm 16.5 14.6 11.9 74 2.5 WNW 13 19 7 10 1012.7 - 0.0
21/10:00pm 17.2 15.7 11.9 71 2.9 WNW 11 20 6 11 1012.6 - 0.0
21/09:30pm 17.0 15.1 11.9 72 2.8 WNW 13 22 7 12 1012.1 - 0.0
21/09:00pm 17.5 16.0 11.8 69 3.1 NNW 11 19 6 10 1011.6 1011.5 0.0
21/08:30pm 18.2 16.6 11.7 66 3.6 WNW 11 20 6 11 1011.5 - 0.0
21/08:00pm 19.3 16.1 11.8 62 4.2 NW 20 30 11 16 1010.8 - 0.0
21/07:30pm 20.1 18.0 11.1 56 4.9 NW 13 20 7 11 1011.2 - 0.0
21/07:00pm 21.0 18.3 10.2 50 5.9 NNW 15 26 8 14 1010.7 - 0.0
21/06:30pm 21.5 19.2 10.3 49 6.1 W 13 28 7 15 1011.1 - 0.0
21/06:00pm 21.6 18.2 10.7 50 6.0 W 19 43 10 23 1010.8 1010.7 0.0
21/05:30pm 22.1 18.6 10.3 47 6.5 W 19 35 10 19 1010.6 - 0.0
21/05:00pm 22.7 18.9 9.8 44 7.0 WNW 20 41 11 22 1010.2 - 0.0
21/04:30pm 23.2 19.9 9.6 42 7.4 WSW 17 32 9 17 1010.7 - 0.0
21/04:00pm 24.8 21.7 8.7 36 8.7 W 15 32 8 17 1010.9 - 0.0
21/03:30pm 23.1 19.2 9.5 42 7.4 N 20 37 11 20 1010.8 - 0.0
21/03:00pm 24.0 19.8 9.6 40 7.9 NNW 22 37 12 20 1010.9 1010.8 0.0
21/02:30pm 25.5 22.1 10.5 39 8.4 NW 19 33 10 18 1011.4 - 0.0
21/02:00pm 24.9 22.0 12.2 45 7.3 NNW 19 33 10 18 1011.5 - 0.0
21/01:30pm 24.4 21.4 12.0 46 7.1 NNW 19 28 10 15 1011.8 - 0.0
21/01:00pm 21.3 16.4 12.7 58 4.9 NNE 30 43 16 23 1012.4 - 0.0
21/12:30pm 21.2 18.4 13.1 60 4.6 NNE 20 30 11 16 1013.2 - 0.0
21/12:00pm 20.7 17.8 12.9 61 4.4 NNE 20 35 11 19 1013.7 1013.6 0.0
21/11:30am 20.0 16.4 13.0 64 4.0 NE 24 32 13 17 1014.1 - 0.0
21/11:00am 19.6 17.4 12.1 62 4.2 NNE 15 26 8 14 1014.5 - 0.0
21/10:30am 18.9 17.0 11.9 64 3.9 N 13 19 7 10 1014.8 - 0.0
21/10:00am 19.0 16.8 10.8 59 4.4 NNE 13 20 7 11 1014.8 - 0.0
21/09:30am 19.0 18.3 11.3 61 4.2 NNE 6 9 3 5 1015.1 - 0.0
21/09:00am 17.5 16.5 11.1 66 3.5 N 7 11 4 6 1015.3 1015.3 0.0
21/08:30am 16.7 15.9 11.6 72 2.8 NNW 7 9 4 5 1015.2 - 0.0
21/08:00am 16.1 15.2 10.6 70 2.9 NNW 6 9 3 5 1015.5 - 0.0
21/07:30am 16.1 15.6 10.8 71 2.8 NNW 4 9 2 5 1015.6 - 0.0
21/07:00am 15.7 16.0 10.9 73 2.6 CALM 0 7 0 4 1016.0 - 0.0
21/06:30am 15.0 15.4 11.2 78 2.0 CALM 0 0 0 0 1015.6 - 0.0
21/06:00am 14.5 14.8 10.9 79 1.9 CALM 0 0 0 0 1015.3 1015.3 0.0
21/05:30am 14.6 14.9 10.8 78 2.0 CALM 0 0 0 0 1015.0 - 0.0
21/05:00am 14.9 14.2 11.3 79 1.9 NW 6 7 3 4 1014.8 - 0.0
21/04:30am 14.8 15.0 10.4 75 2.3 CALM 0 0 0 0 1014.8 - 0.0
21/04:00am 14.8 15.0 10.4 75 2.3 CALM 0 0 0 0 1014.7 - 0.0
21/03:30am 14.9 15.0 10.3 74 2.4 CALM 0 0 0 0 1014.9 - 0.0
21/03:00am 14.9 13.9 10.3 74 2.4 E 6 9 3 5 1015.1 1015.1 0.0
21/02:30am 15.0 14.7 10.2 73 2.5 ESE 2 6 1 3 1015.6 - 0.0
21/02:00am 15.0 14.4 10.4 74 2.4 ESE 4 9 2 5 1015.8 - 0.0
21/01:30am 15.0 14.0 10.2 73 2.5 SE 6 11 3 6 1015.9 - 0.0
21/01:00am 15.2 14.2 10.2 72 2.6 ESE 6 11 3 6 1016.1 - 0.0
21/12:30am 15.2 14.0 10.2 72 2.6 SE 7 13 4 7 1016.3 - 0.0
21/12:00am 15.3 13.7 10.3 72 2.6 SSE 9 15 5 8 1016.4 1016.4 0.0
 
Date/Time
EDT
Temp
°C
App
Temp
°C
Dew
Point
Rel
Hum
%
Delta-T
°C
Wind Press
QNH
hPa
Press
MSL
hPa
Rain
since 9 am
mm
Dir
 
Spd
km/h
Gust
km/h
Spd
kts
Gust
kts
20/11:30pm 15.4 13.9 10.4 72 2.6 SSE 9 17 5 9 1016.6 - 0.0
20/11:00pm 15.4 13.9 10.6 73 2.5 SSE 9 19 5 10 1016.5 - 0.0
20/10:30pm 15.4 13.6 10.8 74 2.4 SE 11 20 6 11 1016.4 - 0.0
20/10:00pm 15.5 13.7 10.7 73 2.5 SSE 11 17 6 9 1016.4 - 0.0
20/09:30pm 15.6 13.5 11.0 74 2.5 SSE 13 24 7 13 1016.2 - 0.0
20/09:00pm 15.9 14.2 11.3 74 2.5 SSE 11 20 6 11 1015.7 1015.7 0.0
20/08:30pm 16.0 14.0 11.6 75 2.4 SSE 13 22 7 12 1015.5 - 0.0
20/08:00pm 16.4 14.2 12.2 76 2.3 SSE 15 26 8 14 1015.1 - 0.0
20/07:30pm 16.8 14.2 12.1 74 2.6 SSE 17 28 9 15 1014.7 - 0.0
20/07:00pm 17.7 15.3 12.6 72 2.8 SSE 17 28 9 15 1014.0 - 0.0
20/06:30pm 19.2 16.5 11.7 62 4.1 SSE 17 32 9 17 1013.3 - 0.0
20/06:00pm 19.7 16.7 12.5 63 4.0 SSE 20 35 11 19 1012.7 1012.6 0.0
20/05:30pm 20.9 18.8 13.6 63 4.2 S 17 28 9 15 1012.1 - 0.0
20/05:00pm 19.5 16.9 13.9 70 3.2 S 20 43 11 23 1011.6 - 0.0
20/04:30pm 21.2 19.3 14.1 64 4.1 S 17 28 9 15 1011.4 - 0.0
20/04:00pm 23.0 21.1 12.9 53 5.8 S 15 26 8 14 1011.1 - 0.0
20/03:30pm 24.2 22.4 10.8 43 7.5 ESE 11 20 6 11 1010.7 - 0.0
20/03:00pm 22.6 20.5 9.7 44 7.0 ESE 11 24 6 13 1010.8 1010.7 0.0
20/02:30pm 24.4 22.7 8.4 36 8.6 SE 7 15 4 8 1010.4 - 0.0
20/02:00pm 24.6 22.8 8.1 35 8.8 SW 7 17 4 9 1010.5 - 0.0
20/01:30pm 22.9 20.8 9.7 43 7.2 NW 11 22 6 12 1011.0 - 0.0
20/01:00pm 23.2 20.2 10.6 45 7.0 NNW 17 28 9 15 1011.4 - 0.0

Other Formats:

Comma delimited format used in spreadsheet applications
http://www.bom.gov.au/fwo/IDT60801/IDT60801.95981.axf

JavaScript Object Notation format (JSON) in row-major order
http://www.bom.gov.au/fwo/IDT60801/IDT60801.95981.json